sensor_id;sensor_type;location;lat;lon;timestamp;P1;durP1;ratioP1;P2;durP2;ratioP2
52858;SDS011;38721;53.098;6.596;2023-02-02T00:00:48;18.83;;;3.83;;
52858;SDS011;38721;53.098;6.596;2023-02-02T00:03:14;21.05;;;4.07;;
52858;SDS011;38721;53.098;6.596;2023-02-02T00:05:44;23.02;;;4.28;;
52858;SDS011;38721;53.098;6.596;2023-02-02T00:08:15;20.60;;;4.15;;
52858;SDS011;38721;53.098;6.596;2023-02-02T00:10:42;27.27;;;4.78;;
52858;SDS011;38721;53.098;6.596;2023-02-02T00:13:08;29.50;;;5.53;;
52858;SDS011;38721;53.098;6.596;2023-02-02T00:15:34;27.55;;;4.25;;
52858;SDS011;38721;53.098;6.596;2023-02-02T00:18:01;29.70;;;4.32;;
52858;SDS011;38721;53.098;6.596;2023-02-02T00:20:26;23.50;;;4.30;;
52858;SDS011;38721;53.098;6.596;2023-02-02T00:22:53;28.20;;;4.03;;
52858;SDS011;38721;53.098;6.596;2023-02-02T00:25:19;22.60;;;4.00;;
52858;SDS011;38721;53.098;6.596;2023-02-02T00:27:45;27.73;;;4.30;;
52858;SDS011;38721;53.098;6.596;2023-02-02T00:30:11;25.17;;;4.70;;
52858;SDS011;38721;53.098;6.596;2023-02-02T00:32:37;26.63;;;4.15;;
52858;SDS011;38721;53.098;6.596;2023-02-02T00:35:05;27.35;;;5.38;;
52858;SDS011;38721;53.098;6.596;2023-02-02T00:37:32;30.92;;;4.63;;
52858;SDS011;38721;53.098;6.596;2023-02-02T00:39:58;21.02;;;3.47;;
52858;SDS011;38721;53.098;6.596;2023-02-02T00:42:23;24.60;;;4.50;;
52858;SDS011;38721;53.098;6.596;2023-02-02T00:44:49;31.15;;;5.32;;
52858;SDS011;38721;53.098;6.596;2023-02-02T00:47:34;22.58;;;4.35;;
52858;SDS011;38721;53.098;6.596;2023-02-02T00:50:00;22.27;;;4.40;;
52858;SDS011;38721;53.098;6.596;2023-02-02T00:52:25;28.13;;;4.10;;
52858;SDS011;38721;53.098;6.596;2023-02-02T00:54:51;23.02;;;4.15;;
52858;SDS011;38721;53.098;6.596;2023-02-02T00:57:17;31.73;;;5.13;;
52858;SDS011;38721;53.098;6.596;2023-02-02T00:59:42;21.55;;;4.65;;
52858;SDS011;38721;53.098;6.596;2023-02-02T01:02:09;30.88;;;5.15;;
52858;SDS011;38721;53.098;6.596;2023-02-02T01:04:35;28.58;;;5.03;;
52858;SDS011;38721;53.098;6.596;2023-02-02T01:07:01;29.83;;;4.78;;
52858;SDS011;38721;53.098;6.596;2023-02-02T01:09:27;22.67;;;4.35;;
52858;SDS011;38721;53.098;6.596;2023-02-02T01:11:52;24.73;;;4.35;;
52858;SDS011;38721;53.098;6.596;2023-02-02T01:14:18;28.42;;;4.68;;
52858;SDS011;38721;53.098;6.596;2023-02-02T01:16:45;23.98;;;4.45;;
52858;SDS011;38721;53.098;6.596;2023-02-02T01:19:12;21.50;;;3.90;;
52858;SDS011;38721;53.098;6.596;2023-02-02T01:21:38;21.88;;;3.58;;
52858;SDS011;38721;53.098;6.596;2023-02-02T01:24:04;25.52;;;5.50;;
52858;SDS011;38721;53.098;6.596;2023-02-02T01:26:30;27.10;;;4.50;;
52858;SDS011;38721;53.098;6.596;2023-02-02T01:28:56;23.55;;;4.28;;
52858;SDS011;38721;53.098;6.596;2023-02-02T01:31:22;24.70;;;3.40;;
52858;SDS011;38721;53.098;6.596;2023-02-02T01:33:48;21.80;;;4.22;;
52858;SDS011;38721;53.098;6.596;2023-02-02T01:36:16;25.77;;;4.78;;
52858;SDS011;38721;53.098;6.596;2023-02-02T01:38:44;25.30;;;4.63;;
52858;SDS011;38721;53.098;6.596;2023-02-02T01:41:19;28.52;;;4.47;;
52858;SDS011;38721;53.098;6.596;2023-02-02T01:46:12;20.23;;;3.97;;
52858;SDS011;38721;53.098;6.596;2023-02-02T01:48:51;30.35;;;4.47;;
52858;SDS011;38721;53.098;6.596;2023-02-02T01:54:41;29.15;;;4.57;;
52858;SDS011;38721;53.098;6.596;2023-02-02T01:57:15;23.55;;;4.13;;
52858;SDS011;38721;53.098;6.596;2023-02-02T02:02:21;16.30;;;3.45;;
52858;SDS011;38721;53.098;6.596;2023-02-02T02:04:48;23.48;;;4.72;;
52858;SDS011;38721;53.098;6.596;2023-02-02T02:07:15;23.60;;;4.43;;
52858;SDS011;38721;53.098;6.596;2023-02-02T02:09:41;25.45;;;4.55;;
52858;SDS011;38721;53.098;6.596;2023-02-02T02:12:13;21.63;;;4.88;;
52858;SDS011;38721;53.098;6.596;2023-02-02T02:14:40;21.08;;;3.67;;
52858;SDS011;38721;53.098;6.596;2023-02-02T02:17:37;22.05;;;4.07;;
52858;SDS011;38721;53.098;6.596;2023-02-02T02:23:57;25.70;;;3.88;;
52858;SDS011;38721;53.098;6.596;2023-02-02T02:37:36;32.03;;;4.65;;
52858;SDS011;38721;53.098;6.596;2023-02-02T02:40:36;22.65;;;5.38;;
52858;SDS011;38721;53.098;6.596;2023-02-02T02:43:18;26.70;;;4.55;;
52858;SDS011;38721;53.098;6.596;2023-02-02T02:45:48;23.50;;;3.75;;
52858;SDS011;38721;53.098;6.596;2023-02-02T02:48:15;25.67;;;4.28;;
52858;SDS011;38721;53.098;6.596;2023-02-02T02:50:41;27.45;;;5.10;;
52858;SDS011;38721;53.098;6.596;2023-02-02T02:53:07;25.33;;;4.55;;
52858;SDS011;38721;53.098;6.596;2023-02-02T02:55:53;21.90;;;3.63;;
52858;SDS011;38721;53.098;6.596;2023-02-02T02:58:41;30.20;;;4.60;;
52858;SDS011;38721;53.098;6.596;2023-02-02T03:01:31;24.50;;;4.15;;
52858;SDS011;38721;53.098;6.596;2023-02-02T03:04:22;26.90;;;3.88;;
52858;SDS011;38721;53.098;6.596;2023-02-02T03:06:59;22.30;;;4.53;;
52858;SDS011;38721;53.098;6.596;2023-02-02T03:09:35;24.45;;;3.83;;
52858;SDS011;38721;53.098;6.596;2023-02-02T03:12:04;38.17;;;5.60;;
52858;SDS011;38721;53.098;6.596;2023-02-02T03:14:36;30.17;;;4.47;;
52858;SDS011;38721;53.098;6.596;2023-02-02T03:17:03;20.77;;;3.67;;
52858;SDS011;38721;53.098;6.596;2023-02-02T03:19:29;18.80;;;3.65;;
52858;SDS011;38721;53.098;6.596;2023-02-02T03:21:55;25.70;;;4.13;;
52858;SDS011;38721;53.098;6.596;2023-02-02T03:24:20;26.38;;;4.82;;
52858;SDS011;38721;53.098;6.596;2023-02-02T03:26:46;34.80;;;5.45;;
52858;SDS011;38721;53.098;6.596;2023-02-02T03:29:12;25.35;;;4.57;;
52858;SDS011;38721;53.098;6.596;2023-02-02T03:31:38;20.58;;;3.38;;
52858;SDS011;38721;53.098;6.596;2023-02-02T03:34:04;24.42;;;3.53;;
52858;SDS011;38721;53.098;6.596;2023-02-02T03:36:29;24.75;;;3.35;;
52858;SDS011;38721;53.098;6.596;2023-02-02T03:38:55;19.60;;;3.65;;
52858;SDS011;38721;53.098;6.596;2023-02-02T03:41:20;18.52;;;3.40;;
52858;SDS011;38721;53.098;6.596;2023-02-02T03:43:46;21.08;;;3.33;;
52858;SDS011;38721;53.098;6.596;2023-02-02T03:46:12;12.25;;;2.88;;
52858;SDS011;38721;53.098;6.596;2023-02-02T03:48:38;9.27;;;2.45;;
52858;SDS011;38721;53.098;6.596;2023-02-02T03:51:07;11.18;;;1.77;;
52858;SDS011;38721;53.098;6.596;2023-02-02T03:53:35;6.70;;;1.73;;
52858;SDS011;38721;53.098;6.596;2023-02-02T03:56:02;8.52;;;1.98;;
52858;SDS011;38721;53.098;6.596;2023-02-02T03:58:28;5.70;;;1.35;;
52858;SDS011;38721;53.098;6.596;2023-02-02T04:00:58;6.45;;;1.40;;
52858;SDS011;38721;53.098;6.596;2023-02-02T04:03:27;8.45;;;1.23;;
52858;SDS011;38721;53.098;6.596;2023-02-02T04:05:53;6.15;;;1.52;;
52858;SDS011;38721;53.098;6.596;2023-02-02T04:08:19;4.85;;;1.25;;
52858;SDS011;38721;53.098;6.596;2023-02-02T04:10:45;2.88;;;0.77;;
52858;SDS011;38721;53.098;6.596;2023-02-02T04:13:10;5.03;;;1.30;;
52858;SDS011;38721;53.098;6.596;2023-02-02T04:15:36;6.75;;;0.85;;
52858;SDS011;38721;53.098;6.596;2023-02-02T04:18:02;5.78;;;1.73;;
52858;SDS011;38721;53.098;6.596;2023-02-02T04:20:28;5.63;;;1.30;;
52858;SDS011;38721;53.098;6.596;2023-02-02T04:22:53;3.88;;;1.40;;
52858;SDS011;38721;53.098;6.596;2023-02-02T04:25:23;5.60;;;0.98;;
52858;SDS011;38721;53.098;6.596;2023-02-02T04:27:49;4.22;;;1.40;;
52858;SDS011;38721;53.098;6.596;2023-02-02T04:30:14;4.55;;;1.05;;
52858;SDS011;38721;53.098;6.596;2023-02-02T04:32:40;3.50;;;0.90;;
52858;SDS011;38721;53.098;6.596;2023-02-02T04:35:06;4.43;;;1.02;;
52858;SDS011;38721;53.098;6.596;2023-02-02T04:37:32;4.60;;;1.48;;
52858;SDS011;38721;53.098;6.596;2023-02-02T04:39:58;3.08;;;1.00;;
52858;SDS011;38721;53.098;6.596;2023-02-02T04:42:24;6.15;;;1.10;;
52858;SDS011;38721;53.098;6.596;2023-02-02T04:44:50;4.50;;;1.10;;
52858;SDS011;38721;53.098;6.596;2023-02-02T04:47:16;6.13;;;1.33;;
52858;SDS011;38721;53.098;6.596;2023-02-02T04:49:41;8.00;;;1.38;;
52858;SDS011;38721;53.098;6.596;2023-02-02T04:52:09;9.98;;;1.60;;
52858;SDS011;38721;53.098;6.596;2023-02-02T04:54:35;8.98;;;2.15;;
52858;SDS011;38721;53.098;6.596;2023-02-02T04:57:00;7.43;;;1.52;;
52858;SDS011;38721;53.098;6.596;2023-02-02T04:59:27;8.43;;;1.98;;
52858;SDS011;38721;53.098;6.596;2023-02-02T05:01:55;6.72;;;1.42;;
52858;SDS011;38721;53.098;6.596;2023-02-02T05:04:23;6.82;;;1.23;;
52858;SDS011;38721;53.098;6.596;2023-02-02T05:06:49;6.28;;;1.40;;
52858;SDS011;38721;53.098;6.596;2023-02-02T05:09:20;5.63;;;1.77;;
52858;SDS011;38721;53.098;6.596;2023-02-02T05:11:46;6.55;;;1.23;;
52858;SDS011;38721;53.098;6.596;2023-02-02T05:14:12;11.05;;;1.60;;
52858;SDS011;38721;53.098;6.596;2023-02-02T05:16:38;7.18;;;1.45;;
52858;SDS011;38721;53.098;6.596;2023-02-02T05:19:07;7.07;;;1.40;;
52858;SDS011;38721;53.098;6.596;2023-02-02T05:21:34;5.38;;;1.70;;
52858;SDS011;38721;53.098;6.596;2023-02-02T05:24:02;6.65;;;1.58;;
52858;SDS011;38721;53.098;6.596;2023-02-02T05:26:28;5.95;;;1.48;;
52858;SDS011;38721;53.098;6.596;2023-02-02T05:28:54;5.20;;;1.20;;
52858;SDS011;38721;53.098;6.596;2023-02-02T05:31:20;8.18;;;1.90;;
52858;SDS011;38721;53.098;6.596;2023-02-02T05:33:46;4.50;;;1.15;;
52858;SDS011;38721;53.098;6.596;2023-02-02T05:36:12;11.82;;;1.65;;
52858;SDS011;38721;53.098;6.596;2023-02-02T05:38:37;5.18;;;1.27;;
52858;SDS011;38721;53.098;6.596;2023-02-02T05:41:03;10.43;;;1.60;;
52858;SDS011;38721;53.098;6.596;2023-02-02T05:43:29;5.60;;;1.50;;
52858;SDS011;38721;53.098;6.596;2023-02-02T05:45:56;6.70;;;2.17;;
52858;SDS011;38721;53.098;6.596;2023-02-02T05:48:22;6.55;;;1.55;;
52858;SDS011;38721;53.098;6.596;2023-02-02T05:51:22;10.15;;;2.00;;
52858;SDS011;38721;53.098;6.596;2023-02-02T05:53:45;7.28;;;1.63;;
52858;SDS011;38721;53.098;6.596;2023-02-02T05:56:11;8.40;;;1.58;;
52858;SDS011;38721;53.098;6.596;2023-02-02T05:58:39;4.95;;;1.17;;
52858;SDS011;38721;53.098;6.596;2023-02-02T06:01:05;6.78;;;1.50;;
52858;SDS011;38721;53.098;6.596;2023-02-02T06:03:31;9.07;;;1.52;;
52858;SDS011;38721;53.098;6.596;2023-02-02T06:05:58;7.75;;;1.40;;
52858;SDS011;38721;53.098;6.596;2023-02-02T06:08:27;6.65;;;1.20;;
52858;SDS011;38721;53.098;6.596;2023-02-02T06:10:52;7.18;;;1.55;;
52858;SDS011;38721;53.098;6.596;2023-02-02T06:13:18;9.73;;;1.50;;
52858;SDS011;38721;53.098;6.596;2023-02-02T06:15:44;7.65;;;1.90;;
52858;SDS011;38721;53.098;6.596;2023-02-02T06:18:10;11.25;;;2.00;;
52858;SDS011;38721;53.098;6.596;2023-02-02T06:20:35;7.60;;;1.40;;
52858;SDS011;38721;53.098;6.596;2023-02-02T06:23:01;10.15;;;1.75;;
52858;SDS011;38721;53.098;6.596;2023-02-02T06:25:28;5.65;;;2.28;;
52858;SDS011;38721;53.098;6.596;2023-02-02T06:27:55;7.40;;;1.20;;
52858;SDS011;38721;53.098;6.596;2023-02-02T06:30:21;11.43;;;1.83;;
52858;SDS011;38721;53.098;6.596;2023-02-02T06:32:47;8.68;;;2.22;;
52858;SDS011;38721;53.098;6.596;2023-02-02T06:35:13;10.63;;;1.77;;
52858;SDS011;38721;53.098;6.596;2023-02-02T06:37:38;7.35;;;1.50;;
52858;SDS011;38721;53.098;6.596;2023-02-02T06:40:06;9.32;;;2.00;;
52858;SDS011;38721;53.098;6.596;2023-02-02T06:42:35;10.38;;;1.90;;
52858;SDS011;38721;53.098;6.596;2023-02-02T06:45:02;9.02;;;1.80;;
52858;SDS011;38721;53.098;6.596;2023-02-02T06:47:28;6.88;;;1.85;;
52858;SDS011;38721;53.098;6.596;2023-02-02T06:49:56;10.52;;;2.20;;
52858;SDS011;38721;53.098;6.596;2023-02-02T06:52:21;7.60;;;2.30;;
52858;SDS011;38721;53.098;6.596;2023-02-02T06:54:47;8.10;;;1.70;;
52858;SDS011;38721;53.098;6.596;2023-02-02T06:57:13;9.73;;;1.70;;
52858;SDS011;38721;53.098;6.596;2023-02-02T06:59:38;8.80;;;1.83;;
52858;SDS011;38721;53.098;6.596;2023-02-02T07:02:08;7.43;;;1.60;;
52858;SDS011;38721;53.098;6.596;2023-02-02T07:04:38;7.82;;;1.52;;
52858;SDS011;38721;53.098;6.596;2023-02-02T07:07:06;9.38;;;1.70;;
52858;SDS011;38721;53.098;6.596;2023-02-02T07:09:32;6.55;;;1.50;;
52858;SDS011;38721;53.098;6.596;2023-02-02T07:11:58;8.90;;;2.00;;
52858;SDS011;38721;53.098;6.596;2023-02-02T07:14:24;8.20;;;1.75;;
52858;SDS011;38721;53.098;6.596;2023-02-02T07:16:49;7.47;;;2.10;;
52858;SDS011;38721;53.098;6.596;2023-02-02T07:19:15;7.70;;;1.90;;
52858;SDS011;38721;53.098;6.596;2023-02-02T07:21:41;8.27;;;1.92;;
52858;SDS011;38721;53.098;6.596;2023-02-02T07:24:07;7.50;;;1.58;;
52858;SDS011;38721;53.098;6.596;2023-02-02T07:26:33;7.10;;;1.80;;
52858;SDS011;38721;53.098;6.596;2023-02-02T07:29:00;7.43;;;1.92;;
52858;SDS011;38721;53.098;6.596;2023-02-02T07:31:28;9.15;;;1.80;;
52858;SDS011;38721;53.098;6.596;2023-02-02T07:33:54;7.03;;;1.42;;
52858;SDS011;38721;53.098;6.596;2023-02-02T07:36:21;7.45;;;1.70;;
52858;SDS011;38721;53.098;6.596;2023-02-02T07:38:49;8.20;;;1.63;;
52858;SDS011;38721;53.098;6.596;2023-02-02T07:41:18;9.88;;;1.70;;
52858;SDS011;38721;53.098;6.596;2023-02-02T07:43:47;7.10;;;1.70;;
52858;SDS011;38721;53.098;6.596;2023-02-02T07:46:13;4.40;;;1.58;;
52858;SDS011;38721;53.098;6.596;2023-02-02T07:48:42;6.10;;;1.25;;
52858;SDS011;38721;53.098;6.596;2023-02-02T07:51:10;5.90;;;1.70;;
52858;SDS011;38721;53.098;6.596;2023-02-02T07:53:41;8.63;;;2.25;;
52858;SDS011;38721;53.098;6.596;2023-02-02T07:56:12;4.18;;;1.70;;
52858;SDS011;38721;53.098;6.596;2023-02-02T07:58:39;4.30;;;1.73;;
52858;SDS011;38721;53.098;6.596;2023-02-02T08:01:07;6.53;;;1.50;;
52858;SDS011;38721;53.098;6.596;2023-02-02T08:03:33;8.10;;;2.40;;
52858;SDS011;38721;53.098;6.596;2023-02-02T08:06:01;7.03;;;1.90;;
52858;SDS011;38721;53.098;6.596;2023-02-02T08:08:36;8.00;;;1.70;;
52858;SDS011;38721;53.098;6.596;2023-02-02T08:11:01;8.57;;;2.15;;
52858;SDS011;38721;53.098;6.596;2023-02-02T08:13:27;6.72;;;1.92;;
52858;SDS011;38721;53.098;6.596;2023-02-02T08:15:55;6.22;;;2.47;;
52858;SDS011;38721;53.098;6.596;2023-02-02T08:18:22;8.43;;;2.33;;
52858;SDS011;38721;53.098;6.596;2023-02-02T08:20:47;10.25;;;2.95;;
52858;SDS011;38721;53.098;6.596;2023-02-02T08:23:13;5.70;;;2.35;;
52858;SDS011;38721;53.098;6.596;2023-02-02T08:25:40;8.13;;;2.63;;
52858;SDS011;38721;53.098;6.596;2023-02-02T08:28:07;6.68;;;2.47;;
52858;SDS011;38721;53.098;6.596;2023-02-02T08:30:35;6.00;;;2.60;;
52858;SDS011;38721;53.098;6.596;2023-02-02T08:33:01;6.72;;;2.38;;
52858;SDS011;38721;53.098;6.596;2023-02-02T08:35:27;6.55;;;2.55;;
52858;SDS011;38721;53.098;6.596;2023-02-02T08:37:53;5.38;;;2.35;;
52858;SDS011;38721;53.098;6.596;2023-02-02T08:40:19;6.88;;;3.00;;
52858;SDS011;38721;53.098;6.596;2023-02-02T08:42:45;8.02;;;2.80;;
52858;SDS011;38721;53.098;6.596;2023-02-02T08:45:11;9.32;;;2.60;;
52858;SDS011;38721;53.098;6.596;2023-02-02T08:47:37;5.75;;;2.80;;
52858;SDS011;38721;53.098;6.596;2023-02-02T08:50:02;6.90;;;3.03;;
52858;SDS011;38721;53.098;6.596;2023-02-02T08:52:28;6.18;;;2.85;;
52858;SDS011;38721;53.098;6.596;2023-02-02T08:54:54;7.15;;;3.10;;
52858;SDS011;38721;53.098;6.596;2023-02-02T08:57:20;8.45;;;3.28;;
52858;SDS011;38721;53.098;6.596;2023-02-02T08:59:45;7.47;;;3.00;;
52858;SDS011;38721;53.098;6.596;2023-02-02T09:02:11;9.55;;;2.92;;
52858;SDS011;38721;53.098;6.596;2023-02-02T09:04:37;10.40;;;3.13;;
52858;SDS011;38721;53.098;6.596;2023-02-02T09:07:04;6.65;;;2.80;;
52858;SDS011;38721;53.098;6.596;2023-02-02T09:09:31;3.92;;;2.50;;
52858;SDS011;38721;53.098;6.596;2023-02-02T09:11:56;8.05;;;3.17;;
52858;SDS011;38721;53.098;6.596;2023-02-02T09:14:22;8.68;;;2.65;;
52858;SDS011;38721;53.098;6.596;2023-02-02T09:16:48;6.38;;;2.38;;
52858;SDS011;38721;53.098;6.596;2023-02-02T09:19:13;8.75;;;2.42;;
52858;SDS011;38721;53.098;6.596;2023-02-02T09:21:44;5.82;;;2.67;;
52858;SDS011;38721;53.098;6.596;2023-02-02T09:24:11;6.03;;;3.00;;
52858;SDS011;38721;53.098;6.596;2023-02-02T09:26:38;7.65;;;3.47;;
52858;SDS011;38721;53.098;6.596;2023-02-02T09:29:05;7.65;;;3.17;;
52858;SDS011;38721;53.098;6.596;2023-02-02T09:31:33;7.95;;;3.13;;
52858;SDS011;38721;53.098;6.596;2023-02-02T09:34:04;6.90;;;3.13;;
52858;SDS011;38721;53.098;6.596;2023-02-02T09:36:35;6.93;;;3.00;;
52858;SDS011;38721;53.098;6.596;2023-02-02T09:39:02;6.78;;;3.65;;
52858;SDS011;38721;53.098;6.596;2023-02-02T09:44:25;8.52;;;2.88;;
52858;SDS011;38721;53.098;6.596;2023-02-02T09:52:52;5.95;;;2.80;;
52858;SDS011;38721;53.098;6.596;2023-02-02T09:55:43;6.55;;;3.20;;
52858;SDS011;38721;53.098;6.596;2023-02-02T09:58:28;5.50;;;2.95;;
52858;SDS011;38721;53.098;6.596;2023-02-02T10:01:07;4.75;;;2.50;;
52858;SDS011;38721;53.098;6.596;2023-02-02T10:03:41;4.72;;;2.47;;
52858;SDS011;38721;53.098;6.596;2023-02-02T10:06:33;7.65;;;3.10;;
52858;SDS011;38721;53.098;6.596;2023-02-02T10:23:50;4.53;;;2.30;;
52858;SDS011;38721;53.098;6.596;2023-02-02T10:26:20;7.50;;;2.33;;
52858;SDS011;38721;53.098;6.596;2023-02-02T10:31:24;4.82;;;2.28;;
52858;SDS011;38721;53.098;6.596;2023-02-02T10:34:05;5.18;;;1.90;;
52858;SDS011;38721;53.098;6.596;2023-02-02T10:36:49;4.50;;;1.80;;
52858;SDS011;38721;53.098;6.596;2023-02-02T10:39:39;4.47;;;1.70;;
52858;SDS011;38721;53.098;6.596;2023-02-02T10:45:11;6.10;;;1.80;;
52858;SDS011;38721;53.098;6.596;2023-02-02T10:47:41;8.18;;;2.47;;
52858;SDS011;38721;53.098;6.596;2023-02-02T10:52:36;6.65;;;2.35;;
52858;SDS011;38721;53.098;6.596;2023-02-02T11:00:29;6.57;;;2.30;;
52858;SDS011;38721;53.098;6.596;2023-02-02T11:03:28;4.22;;;2.30;;
52858;SDS011;38721;53.098;6.596;2023-02-02T11:05:56;5.65;;;1.90;;
52858;SDS011;38721;53.098;6.596;2023-02-02T11:08:44;5.53;;;2.05;;
52858;SDS011;38721;53.098;6.596;2023-02-02T11:11:15;6.82;;;2.28;;
52858;SDS011;38721;53.098;6.596;2023-02-02T11:13:52;5.35;;;2.10;;
52858;SDS011;38721;53.098;6.596;2023-02-02T11:16:24;4.55;;;2.25;;
52858;SDS011;38721;53.098;6.596;2023-02-02T11:18:57;6.63;;;2.43;;
52858;SDS011;38721;53.098;6.596;2023-02-02T11:21:33;6.68;;;2.28;;
52858;SDS011;38721;53.098;6.596;2023-02-02T11:24:05;4.80;;;2.60;;
52858;SDS011;38721;53.098;6.596;2023-02-02T11:37:30;7.00;;;2.65;;
52858;SDS011;38721;53.098;6.596;2023-02-02T11:42:51;5.38;;;2.47;;
52858;SDS011;38721;53.098;6.596;2023-02-02T11:45:18;3.90;;;2.33;;
52858;SDS011;38721;53.098;6.596;2023-02-02T11:48:32;4.57;;;2.30;;
52858;SDS011;38721;53.098;6.596;2023-02-02T11:51:19;5.22;;;2.63;;
52858;SDS011;38721;53.098;6.596;2023-02-02T11:53:47;6.05;;;3.25;;
52858;SDS011;38721;53.098;6.596;2023-02-02T11:56:18;4.40;;;2.58;;
52858;SDS011;38721;53.098;6.596;2023-02-02T11:58:54;6.75;;;3.20;;
52858;SDS011;38721;53.098;6.596;2023-02-02T12:04:00;4.85;;;2.72;;
52858;SDS011;38721;53.098;6.596;2023-02-02T12:08:58;5.80;;;2.60;;
52858;SDS011;38721;53.098;6.596;2023-02-02T12:14:25;7.82;;;2.97;;
52858;SDS011;38721;53.098;6.596;2023-02-02T12:22:24;8.23;;;3.00;;
52858;SDS011;38721;53.098;6.596;2023-02-02T12:28:24;4.22;;;2.40;;
52858;SDS011;38721;53.098;6.596;2023-02-02T12:36:56;3.92;;;1.75;;
52858;SDS011;38721;53.098;6.596;2023-02-02T13:01:14;4.55;;;2.15;;
52858;SDS011;38721;53.098;6.596;2023-02-02T13:09:57;5.57;;;1.80;;
52858;SDS011;38721;53.098;6.596;2023-02-02T13:12:33;5.72;;;1.60;;
52858;SDS011;38721;53.098;6.596;2023-02-02T13:15:06;4.07;;;1.88;;
52858;SDS011;38721;53.098;6.596;2023-02-02T13:17:38;5.25;;;2.03;;
52858;SDS011;38721;53.098;6.596;2023-02-02T13:23:27;5.40;;;2.00;;
52858;SDS011;38721;53.098;6.596;2023-02-02T13:25:55;5.75;;;2.17;;
52858;SDS011;38721;53.098;6.596;2023-02-02T13:28:45;4.57;;;1.98;;
52858;SDS011;38721;53.098;6.596;2023-02-02T13:31:39;2.78;;;2.00;;
52858;SDS011;38721;53.098;6.596;2023-02-02T13:34:52;5.47;;;2.00;;
52858;SDS011;38721;53.098;6.596;2023-02-02T13:37:15;5.15;;;2.25;;
52858;SDS011;38721;53.098;6.596;2023-02-02T13:42:52;3.95;;;1.60;;
52858;SDS011;38721;53.098;6.596;2023-02-02T13:45:41;4.97;;;1.63;;
52858;SDS011;38721;53.098;6.596;2023-02-02T14:02:20;6.93;;;2.47;;
52858;SDS011;38721;53.098;6.596;2023-02-02T14:04:54;7.65;;;2.50;;
52858;SDS011;38721;53.098;6.596;2023-02-02T14:07:26;7.30;;;2.65;;
52858;SDS011;38721;53.098;6.596;2023-02-02T14:10:00;5.80;;;2.92;;
52858;SDS011;38721;53.098;6.596;2023-02-02T14:12:29;8.43;;;3.35;;
52858;SDS011;38721;53.098;6.596;2023-02-02T14:14:57;6.50;;;3.30;;
52858;SDS011;38721;53.098;6.596;2023-02-02T14:20:02;7.50;;;3.40;;
52858;SDS011;38721;53.098;6.596;2023-02-02T14:22:37;9.98;;;3.20;;
52858;SDS011;38721;53.098;6.596;2023-02-02T14:25:48;6.18;;;3.13;;
52858;SDS011;38721;53.098;6.596;2023-02-02T14:28:08;5.88;;;3.28;;
52858;SDS011;38721;53.098;6.596;2023-02-02T14:30:36;6.05;;;3.35;;
52858;SDS011;38721;53.098;6.596;2023-02-02T14:44:08;9.27;;;4.97;;
52858;SDS011;38721;53.098;6.596;2023-02-02T14:46:37;12.18;;;6.45;;
52858;SDS011;38721;53.098;6.596;2023-02-02T14:49:06;12.90;;;8.10;;
52858;SDS011;38721;53.098;6.596;2023-02-02T14:51:47;12.82;;;6.65;;
52858;SDS011;38721;53.098;6.596;2023-02-02T14:54:49;10.05;;;6.97;;
52858;SDS011;38721;53.098;6.596;2023-02-02T14:57:31;18.08;;;6.72;;
52858;SDS011;38721;53.098;6.596;2023-02-02T14:59:58;9.98;;;6.25;;
52858;SDS011;38721;53.098;6.596;2023-02-02T15:02:29;12.98;;;7.47;;
52858;SDS011;38721;53.098;6.596;2023-02-02T15:13:21;13.10;;;6.97;;
52858;SDS011;38721;53.098;6.596;2023-02-02T15:15:50;16.58;;;8.30;;
52858;SDS011;38721;53.098;6.596;2023-02-02T15:18:29;17.05;;;8.50;;
52858;SDS011;38721;53.098;6.596;2023-02-02T15:21:03;22.50;;;8.70;;
52858;SDS011;38721;53.098;6.596;2023-02-02T15:26:16;18.98;;;8.70;;
52858;SDS011;38721;53.098;6.596;2023-02-02T15:28:54;21.55;;;9.32;;
52858;SDS011;38721;53.098;6.596;2023-02-02T15:34:02;20.38;;;8.73;;
52858;SDS011;38721;53.098;6.596;2023-02-02T15:36:43;15.82;;;8.48;;
52858;SDS011;38721;53.098;6.596;2023-02-02T15:39:18;20.25;;;8.57;;
52858;SDS011;38721;53.098;6.596;2023-02-02T15:42:06;23.23;;;8.85;;
52858;SDS011;38721;53.098;6.596;2023-02-02T15:44:58;20.75;;;9.13;;
52858;SDS011;38721;53.098;6.596;2023-02-02T15:47:32;25.27;;;8.05;;
52858;SDS011;38721;53.098;6.596;2023-02-02T15:50:03;20.52;;;7.65;;
52858;SDS011;38721;53.098;6.596;2023-02-02T15:52:46;21.35;;;7.50;;
52858;SDS011;38721;53.098;6.596;2023-02-02T15:55:28;18.35;;;7.35;;
52858;SDS011;38721;53.098;6.596;2023-02-02T15:57:55;16.80;;;7.47;;
52858;SDS011;38721;53.098;6.596;2023-02-02T16:02:52;15.95;;;8.25;;
52858;SDS011;38721;53.098;6.596;2023-02-02T16:07:59;14.45;;;7.40;;
52858;SDS011;38721;53.098;6.596;2023-02-02T16:10:26;16.85;;;7.32;;
52858;SDS011;38721;53.098;6.596;2023-02-02T16:12:53;19.42;;;7.32;;
52858;SDS011;38721;53.098;6.596;2023-02-02T16:15:24;14.68;;;7.15;;
52858;SDS011;38721;53.098;6.596;2023-02-02T16:17:59;15.35;;;7.70;;
52858;SDS011;38721;53.098;6.596;2023-02-02T16:20:33;17.52;;;7.05;;
52858;SDS011;38721;53.098;6.596;2023-02-02T16:23:04;11.30;;;5.65;;
52858;SDS011;38721;53.098;6.596;2023-02-02T16:25:38;13.77;;;5.78;;
52858;SDS011;38721;53.098;6.596;2023-02-02T16:28:17;10.82;;;5.47;;
52858;SDS011;38721;53.098;6.596;2023-02-02T16:30:44;12.88;;;5.82;;
52858;SDS011;38721;53.098;6.596;2023-02-02T16:36:20;13.43;;;5.65;;
52858;SDS011;38721;53.098;6.596;2023-02-02T16:38:49;15.60;;;6.50;;
52858;SDS011;38721;53.098;6.596;2023-02-02T16:41:27;9.63;;;5.30;;
52858;SDS011;38721;53.098;6.596;2023-02-02T16:47:04;12.68;;;6.72;;
52858;SDS011;38721;53.098;6.596;2023-02-02T16:49:32;12.10;;;6.38;;
52858;SDS011;38721;53.098;6.596;2023-02-02T16:52:07;14.48;;;6.30;;
52858;SDS011;38721;53.098;6.596;2023-02-02T16:54:48;16.05;;;7.03;;
52858;SDS011;38721;53.098;6.596;2023-02-02T16:57:20;14.15;;;7.18;;
52858;SDS011;38721;53.098;6.596;2023-02-02T16:59:55;22.35;;;8.13;;
52858;SDS011;38721;53.098;6.596;2023-02-02T17:05:08;20.02;;;8.80;;
52858;SDS011;38721;53.098;6.596;2023-02-02T17:07:44;18.10;;;8.60;;
52858;SDS011;38721;53.098;6.596;2023-02-02T17:12:42;20.98;;;8.98;;
52858;SDS011;38721;53.098;6.596;2023-02-02T17:17:43;23.90;;;10.07;;
52858;SDS011;38721;53.098;6.596;2023-02-02T17:20:11;22.50;;;9.35;;
52858;SDS011;38721;53.098;6.596;2023-02-02T17:22:38;20.85;;;9.40;;
52858;SDS011;38721;53.098;6.596;2023-02-02T17:25:08;20.25;;;9.65;;
52858;SDS011;38721;53.098;6.596;2023-02-02T17:27:51;24.52;;;10.32;;
52858;SDS011;38721;53.098;6.596;2023-02-02T17:30:18;22.35;;;9.18;;
52858;SDS011;38721;53.098;6.596;2023-02-02T17:32:44;23.00;;;10.15;;
52858;SDS011;38721;53.098;6.596;2023-02-02T17:35:14;22.75;;;10.30;;
52858;SDS011;38721;53.098;6.596;2023-02-02T17:37:42;24.67;;;9.60;;
52858;SDS011;38721;53.098;6.596;2023-02-02T17:40:13;22.75;;;10.52;;
52858;SDS011;38721;53.098;6.596;2023-02-02T17:42:41;23.63;;;10.52;;
52858;SDS011;38721;53.098;6.596;2023-02-02T17:45:15;28.73;;;10.65;;
52858;SDS011;38721;53.098;6.596;2023-02-02T17:47:43;26.15;;;10.75;;
52858;SDS011;38721;53.098;6.596;2023-02-02T17:50:09;23.15;;;10.32;;
52858;SDS011;38721;53.098;6.596;2023-02-02T17:52:35;28.73;;;10.02;;
52858;SDS011;38721;53.098;6.596;2023-02-02T17:55:16;27.38;;;10.18;;
52858;SDS011;38721;53.098;6.596;2023-02-02T17:57:47;21.80;;;9.38;;
52858;SDS011;38721;53.098;6.596;2023-02-02T18:00:14;22.25;;;9.27;;
52858;SDS011;38721;53.098;6.596;2023-02-02T18:02:41;26.15;;;9.52;;
52858;SDS011;38721;53.098;6.596;2023-02-02T18:05:08;27.85;;;9.63;;
52858;SDS011;38721;53.098;6.596;2023-02-02T18:07:35;24.95;;;9.38;;
52858;SDS011;38721;53.098;6.596;2023-02-02T18:10:02;24.98;;;9.32;;